sensor_id;sensor_type;location;lat;lon;timestamp;temperature;humidity
21778;DHT22;11050;52.222;20.916;2023-11-19T00:00:17;1.10;99.90
21778;DHT22;11050;52.222;20.916;2023-11-19T00:02:43;1.10;99.90
21778;DHT22;11050;52.222;20.916;2023-11-19T00:05:09;1.10;99.90
21778;DHT22;11050;52.222;20.916;2023-11-19T00:07:37;1.00;99.90
21778;DHT22;11050;52.222;20.916;2023-11-19T00:10:10;1.10;99.90
21778;DHT22;11050;52.222;20.916;2023-11-19T00:12:41;1.00;99.90
21778;DHT22;11050;52.222;20.916;2023-11-19T00:15:10;1.00;99.90
21778;DHT22;11050;52.222;20.916;2023-11-19T00:17:43;1.00;99.90
21778;DHT22;11050;52.222;20.916;2023-11-19T00:20:20;1.00;99.90
21778;DHT22;11050;52.222;20.916;2023-11-19T00:22:49;1.00;99.90
21778;DHT22;11050;52.222;20.916;2023-11-19T00:25:20;1.00;99.90
21778;DHT22;11050;52.222;20.916;2023-11-19T00:27:50;1.00;99.90
21778;DHT22;11050;52.222;20.916;2023-11-19T00:30:16;1.00;99.90
21778;DHT22;11050;52.222;20.916;2023-11-19T00:32:42;1.00;99.90
21778;DHT22;11050;52.222;20.916;2023-11-19T00:35:09;1.00;99.90
21778;DHT22;11050;52.222;20.916;2023-11-19T00:37:39;0.90;99.90
21778;DHT22;11050;52.222;20.916;2023-11-19T00:40:06;1.00;99.90
21778;DHT22;11050;52.222;20.916;2023-11-19T00:42:32;1.00;99.90
21778;DHT22;11050;52.222;20.916;2023-11-19T00:44:58;1.00;99.90
21778;DHT22;11050;52.222;20.916;2023-11-19T00:47:24;1.00;99.90
21778;DHT22;11050;52.222;20.916;2023-11-19T00:49:49;1.00;99.90
21778;DHT22;11050;52.222;20.916;2023-11-19T00:52:16;1.10;99.90
21778;DHT22;11050;52.222;20.916;2023-11-19T00:54:42;1.00;99.90
21778;DHT22;11050;52.222;20.916;2023-11-19T00:57:08;1.10;99.90
21778;DHT22;11050;52.222;20.916;2023-11-19T00:59:34;1.00;99.90
21778;DHT22;11050;52.222;20.916;2023-11-19T01:02:00;1.10;99.90
21778;DHT22;11050;52.222;20.916;2023-11-19T01:04:33;1.10;99.90
21778;DHT22;11050;52.222;20.916;2023-11-19T01:07:02;1.10;99.90
21778;DHT22;11050;52.222;20.916;2023-11-19T01:09:34;1.10;99.90
21778;DHT22;11050;52.222;20.916;2023-11-19T01:12:01;1.10;99.90
21778;DHT22;11050;52.222;20.916;2023-11-19T01:14:28;1.10;99.90
21778;DHT22;11050;52.222;20.916;2023-11-19T01:16:54;1.10;99.90
21778;DHT22;11050;52.222;20.916;2023-11-19T01:19:21;1.10;99.90
21778;DHT22;11050;52.222;20.916;2023-11-19T01:21:48;1.20;99.90
21778;DHT22;11050;52.222;20.916;2023-11-19T01:24:15;1.10;99.90
21778;DHT22;11050;52.222;20.916;2023-11-19T01:26:41;1.10;99.90
21778;DHT22;11050;52.222;20.916;2023-11-19T01:29:15;1.20;99.90
21778;DHT22;11050;52.222;20.916;2023-11-19T01:31:45;1.20;99.90
21778;DHT22;11050;52.222;20.916;2023-11-19T01:34:12;1.20;99.90
21778;DHT22;11050;52.222;20.916;2023-11-19T01:36:38;1.20;99.90
21778;DHT22;11050;52.222;20.916;2023-11-19T01:39:04;1.20;99.90
21778;DHT22;11050;52.222;20.916;2023-11-19T01:41:37;1.20;99.90
21778;DHT22;11050;52.222;20.916;2023-11-19T01:44:06;1.20;99.90
21778;DHT22;11050;52.222;20.916;2023-11-19T01:46:32;1.20;99.90
21778;DHT22;11050;52.222;20.916;2023-11-19T01:48:59;1.20;99.90
21778;DHT22;11050;52.222;20.916;2023-11-19T01:51:26;1.20;99.90
21778;DHT22;11050;52.222;20.916;2023-11-19T01:53:53;1.20;99.90
21778;DHT22;11050;52.222;20.916;2023-11-19T01:56:20;1.20;99.90
21778;DHT22;11050;52.222;20.916;2023-11-19T01:58:48;1.20;99.90
21778;DHT22;11050;52.222;20.916;2023-11-19T02:01:16;1.20;99.90
21778;DHT22;11050;52.222;20.916;2023-11-19T02:03:42;1.20;99.90
21778;DHT22;11050;52.222;20.916;2023-11-19T02:06:08;1.30;99.90
21778;DHT22;11050;52.222;20.916;2023-11-19T02:08:35;1.20;99.90
21778;DHT22;11050;52.222;20.916;2023-11-19T02:11:02;1.30;99.90
21778;DHT22;11050;52.222;20.916;2023-11-19T02:13:28;1.20;99.90
21778;DHT22;11050;52.222;20.916;2023-11-19T02:15:54;1.30;99.90
21778;DHT22;11050;52.222;20.916;2023-11-19T02:18:25;1.30;99.90
21778;DHT22;11050;52.222;20.916;2023-11-19T02:20:57;1.30;99.90
21778;DHT22;11050;52.222;20.916;2023-11-19T02:23:25;1.30;99.90
21778;DHT22;11050;52.222;20.916;2023-11-19T02:26:02;1.30;99.90
21778;DHT22;11050;52.222;20.916;2023-11-19T02:28:31;1.40;99.90
21778;DHT22;11050;52.222;20.916;2023-11-19T02:30:58;1.30;99.90
21778;DHT22;11050;52.222;20.916;2023-11-19T02:33:24;1.40;99.90
21778;DHT22;11050;52.222;20.916;2023-11-19T02:35:50;1.40;99.90
21778;DHT22;11050;52.222;20.916;2023-11-19T02:38:16;1.40;99.90
21778;DHT22;11050;52.222;20.916;2023-11-19T02:40:42;1.40;99.90
21778;DHT22;11050;52.222;20.916;2023-11-19T02:43:08;1.40;99.90
21778;DHT22;11050;52.222;20.916;2023-11-19T02:45:34;1.40;99.90
21778;DHT22;11050;52.222;20.916;2023-11-19T02:47:59;1.40;99.90
21778;DHT22;11050;52.222;20.916;2023-11-19T02:50:28;1.40;99.90
21778;DHT22;11050;52.222;20.916;2023-11-19T02:52:55;1.40;99.90
21778;DHT22;11050;52.222;20.916;2023-11-19T02:55:22;1.40;99.90
21778;DHT22;11050;52.222;20.916;2023-11-19T02:57:49;1.40;99.90
21778;DHT22;11050;52.222;20.916;2023-11-19T03:00:20;1.40;99.90
21778;DHT22;11050;52.222;20.916;2023-11-19T03:02:51;1.40;99.90
21778;DHT22;11050;52.222;20.916;2023-11-19T03:05:40;1.40;99.90
21778;DHT22;11050;52.222;20.916;2023-11-19T03:08:06;1.40;99.90
21778;DHT22;11050;52.222;20.916;2023-11-19T03:10:32;1.40;99.90
21778;DHT22;11050;52.222;20.916;2023-11-19T03:13:00;1.40;99.90
21778;DHT22;11050;52.222;20.916;2023-11-19T03:15:27;1.40;99.90
21778;DHT22;11050;52.222;20.916;2023-11-19T03:17:53;1.30;99.90
21778;DHT22;11050;52.222;20.916;2023-11-19T03:20:19;1.40;99.90
21778;DHT22;11050;52.222;20.916;2023-11-19T03:22:46;1.40;99.90
21778;DHT22;11050;52.222;20.916;2023-11-19T03:25:12;1.40;99.90
21778;DHT22;11050;52.222;20.916;2023-11-19T03:27:39;1.40;99.90
21778;DHT22;11050;52.222;20.916;2023-11-19T03:30:08;1.40;99.90
21778;DHT22;11050;52.222;20.916;2023-11-19T03:32:37;1.40;99.90
21778;DHT22;11050;52.222;20.916;2023-11-19T03:35:05;1.40;99.90
21778;DHT22;11050;52.222;20.916;2023-11-19T03:37:34;1.40;99.90
21778;DHT22;11050;52.222;20.916;2023-11-19T03:40:01;1.40;99.90
21778;DHT22;11050;52.222;20.916;2023-11-19T03:42:26;1.40;99.90
21778;DHT22;11050;52.222;20.916;2023-11-19T03:44:53;1.40;99.90
21778;DHT22;11050;52.222;20.916;2023-11-19T03:47:19;1.30;99.90
21778;DHT22;11050;52.222;20.916;2023-11-19T03:49:52;1.30;99.90
21778;DHT22;11050;52.222;20.916;2023-11-19T03:52:18;1.30;99.90
21778;DHT22;11050;52.222;20.916;2023-11-19T03:54:44;1.30;99.90
21778;DHT22;11050;52.222;20.916;2023-11-19T03:57:14;1.30;99.90
21778;DHT22;11050;52.222;20.916;2023-11-19T03:59:41;1.30;99.90
21778;DHT22;11050;52.222;20.916;2023-11-19T04:02:07;1.30;99.90
21778;DHT22;11050;52.222;20.916;2023-11-19T04:04:33;1.30;99.90
21778;DHT22;11050;52.222;20.916;2023-11-19T04:07:00;1.30;99.90
21778;DHT22;11050;52.222;20.916;2023-11-19T04:09:26;1.30;99.90
21778;DHT22;11050;52.222;20.916;2023-11-19T04:11:52;1.30;99.90
21778;DHT22;11050;52.222;20.916;2023-11-19T04:14:18;1.40;99.90
21778;DHT22;11050;52.222;20.916;2023-11-19T04:16:44;1.30;99.90
21778;DHT22;11050;52.222;20.916;2023-11-19T04:19:11;1.40;99.90
21778;DHT22;11050;52.222;20.916;2023-11-19T04:21:39;1.30;99.90
21778;DHT22;11050;52.222;20.916;2023-11-19T04:24:07;1.40;99.90
21778;DHT22;11050;52.222;20.916;2023-11-19T04:26:33;1.30;99.90
21778;DHT22;11050;52.222;20.916;2023-11-19T04:28:59;1.40;99.90
21778;DHT22;11050;52.222;20.916;2023-11-19T04:31:29;1.40;99.90
21778;DHT22;11050;52.222;20.916;2023-11-19T04:33:56;1.30;99.90
21778;DHT22;11050;52.222;20.916;2023-11-19T04:36:22;1.40;99.90
21778;DHT22;11050;52.222;20.916;2023-11-19T04:38:50;1.30;99.90
21778;DHT22;11050;52.222;20.916;2023-11-19T04:41:16;1.40;99.90
21778;DHT22;11050;52.222;20.916;2023-11-19T04:43:41;1.30;99.90
21778;DHT22;11050;52.222;20.916;2023-11-19T04:46:09;1.30;99.90
21778;DHT22;11050;52.222;20.916;2023-11-19T04:48:35;1.30;99.90
21778;DHT22;11050;52.222;20.916;2023-11-19T04:51:00;1.30;99.90
21778;DHT22;11050;52.222;20.916;2023-11-19T04:53:26;1.30;99.90
21778;DHT22;11050;52.222;20.916;2023-11-19T04:55:52;1.20;99.90
21778;DHT22;11050;52.222;20.916;2023-11-19T04:58:17;1.30;99.90
21778;DHT22;11050;52.222;20.916;2023-11-19T05:00:44;1.30;99.90
21778;DHT22;11050;52.222;20.916;2023-11-19T05:03:10;1.20;99.90
21778;DHT22;11050;52.222;20.916;2023-11-19T05:05:36;1.30;99.90
21778;DHT22;11050;52.222;20.916;2023-11-19T05:08:02;1.30;99.90
21778;DHT22;11050;52.222;20.916;2023-11-19T05:10:28;1.30;99.90
21778;DHT22;11050;52.222;20.916;2023-11-19T05:12:53;1.30;99.90
21778;DHT22;11050;52.222;20.916;2023-11-19T05:15:21;1.30;99.90
21778;DHT22;11050;52.222;20.916;2023-11-19T05:17:47;1.30;99.90
21778;DHT22;11050;52.222;20.916;2023-11-19T05:20:13;1.30;99.90
21778;DHT22;11050;52.222;20.916;2023-11-19T05:22:40;1.30;99.90
21778;DHT22;11050;52.222;20.916;2023-11-19T05:25:07;1.20;99.90
21778;DHT22;11050;52.222;20.916;2023-11-19T05:27:37;1.20;99.90
21778;DHT22;11050;52.222;20.916;2023-11-19T05:30:05;1.20;99.90
21778;DHT22;11050;52.222;20.916;2023-11-19T05:32:33;1.20;99.90
21778;DHT22;11050;52.222;20.916;2023-11-19T05:34:58;1.20;99.90
21778;DHT22;11050;52.222;20.916;2023-11-19T05:37:24;1.20;99.90
21778;DHT22;11050;52.222;20.916;2023-11-19T05:39:51;1.20;99.90
21778;DHT22;11050;52.222;20.916;2023-11-19T05:42:16;1.20;99.90
21778;DHT22;11050;52.222;20.916;2023-11-19T05:44:42;1.20;99.90
21778;DHT22;11050;52.222;20.916;2023-11-19T05:47:08;1.20;99.90
21778;DHT22;11050;52.222;20.916;2023-11-19T05:49:34;1.20;99.90
21778;DHT22;11050;52.222;20.916;2023-11-19T05:51:59;1.10;99.90
21778;DHT22;11050;52.222;20.916;2023-11-19T05:54:27;1.10;99.90
21778;DHT22;11050;52.222;20.916;2023-11-19T05:56:52;1.10;99.90
21778;DHT22;11050;52.222;20.916;2023-11-19T05:59:20;1.10;99.90
21778;DHT22;11050;52.222;20.916;2023-11-19T06:01:45;1.10;99.90
21778;DHT22;11050;52.222;20.916;2023-11-19T06:04:12;1.10;99.90
21778;DHT22;11050;52.222;20.916;2023-11-19T06:06:38;1.10;99.90
21778;DHT22;11050;52.222;20.916;2023-11-19T06:09:04;1.10;99.90
21778;DHT22;11050;52.222;20.916;2023-11-19T06:11:31;1.10;99.90
21778;DHT22;11050;52.222;20.916;2023-11-19T06:13:56;1.10;99.90
21778;DHT22;11050;52.222;20.916;2023-11-19T06:16:23;1.10;99.90
21778;DHT22;11050;52.222;20.916;2023-11-19T06:18:49;1.10;99.90
21778;DHT22;11050;52.222;20.916;2023-11-19T06:21:14;1.10;99.90
21778;DHT22;11050;52.222;20.916;2023-11-19T06:23:40;1.10;99.90
21778;DHT22;11050;52.222;20.916;2023-11-19T06:26:06;1.10;99.90
21778;DHT22;11050;52.222;20.916;2023-11-19T06:28:32;1.10;99.90
21778;DHT22;11050;52.222;20.916;2023-11-19T06:30:57;1.10;99.90
21778;DHT22;11050;52.222;20.916;2023-11-19T06:33:24;1.10;99.90
21778;DHT22;11050;52.222;20.916;2023-11-19T06:35:50;1.20;99.90
21778;DHT22;11050;52.222;20.916;2023-11-19T06:38:16;1.10;99.90
21778;DHT22;11050;52.222;20.916;2023-11-19T06:40:41;1.20;99.90
21778;DHT22;11050;52.222;20.916;2023-11-19T06:43:07;1.10;99.90
21778;DHT22;11050;52.222;20.916;2023-11-19T06:45:36;1.10;99.90
21778;DHT22;11050;52.222;20.916;2023-11-19T06:48:04;1.10;99.90
21778;DHT22;11050;52.222;20.916;2023-11-19T06:50:31;1.10;99.90
21778;DHT22;11050;52.222;20.916;2023-11-19T06:52:58;1.20;99.90
21778;DHT22;11050;52.222;20.916;2023-11-19T06:55:23;1.20;99.90
21778;DHT22;11050;52.222;20.916;2023-11-19T06:57:49;1.10;99.90
21778;DHT22;11050;52.222;20.916;2023-11-19T07:00:15;1.10;99.90
21778;DHT22;11050;52.222;20.916;2023-11-19T07:02:42;1.10;99.90
21778;DHT22;11050;52.222;20.916;2023-11-19T07:05:09;1.10;99.90
21778;DHT22;11050;52.222;20.916;2023-11-19T07:07:37;1.10;99.90
21778;DHT22;11050;52.222;20.916;2023-11-19T07:10:03;1.10;99.90
21778;DHT22;11050;52.222;20.916;2023-11-19T07:12:30;1.10;99.90
21778;DHT22;11050;52.222;20.916;2023-11-19T07:14:56;1.00;99.90
21778;DHT22;11050;52.222;20.916;2023-11-19T07:17:22;1.10;99.90
21778;DHT22;11050;52.222;20.916;2023-11-19T07:19:50;1.00;99.90
21778;DHT22;11050;52.222;20.916;2023-11-19T07:22:16;1.00;99.90
21778;DHT22;11050;52.222;20.916;2023-11-19T07:24:42;1.00;99.90
21778;DHT22;11050;52.222;20.916;2023-11-19T07:27:08;1.00;99.90
21778;DHT22;11050;52.222;20.916;2023-11-19T07:29:35;0.90;99.90
21778;DHT22;11050;52.222;20.916;2023-11-19T07:32:01;0.90;99.90
21778;DHT22;11050;52.222;20.916;2023-11-19T07:34:30;0.90;99.90
21778;DHT22;11050;52.222;20.916;2023-11-19T07:36:56;0.90;99.90
21778;DHT22;11050;52.222;20.916;2023-11-19T07:39:27;1.00;99.90
21778;DHT22;11050;52.222;20.916;2023-11-19T07:41:53;1.00;99.90
21778;DHT22;11050;52.222;20.916;2023-11-19T07:44:20;1.10;99.90
21778;DHT22;11050;52.222;20.916;2023-11-19T07:46:47;1.10;99.90
21778;DHT22;11050;52.222;20.916;2023-11-19T07:49:13;1.20;99.90
21778;DHT22;11050;52.222;20.916;2023-11-19T07:51:40;1.20;99.90
21778;DHT22;11050;52.222;20.916;2023-11-19T07:54:06;1.30;99.90
21778;DHT22;11050;52.222;20.916;2023-11-19T07:56:35;1.30;99.90
21778;DHT22;11050;52.222;20.916;2023-11-19T07:59:03;1.40;99.90
21778;DHT22;11050;52.222;20.916;2023-11-19T08:01:29;1.50;99.90
21778;DHT22;11050;52.222;20.916;2023-11-19T08:03:54;1.50;99.90
21778;DHT22;11050;52.222;20.916;2023-11-19T08:06:20;1.50;99.90
21778;DHT22;11050;52.222;20.916;2023-11-19T08:08:46;1.60;99.90
21778;DHT22;11050;52.222;20.916;2023-11-19T08:11:13;1.60;99.90
21778;DHT22;11050;52.222;20.916;2023-11-19T08:13:40;1.60;99.90
21778;DHT22;11050;52.222;20.916;2023-11-19T08:16:06;1.60;99.90
21778;DHT22;11050;52.222;20.916;2023-11-19T08:18:32;1.60;99.90
21778;DHT22;11050;52.222;20.916;2023-11-19T08:20:58;1.70;99.90
21778;DHT22;11050;52.222;20.916;2023-11-19T08:23:26;1.70;99.90
21778;DHT22;11050;52.222;20.916;2023-11-19T08:25:51;1.80;99.90
21778;DHT22;11050;52.222;20.916;2023-11-19T08:28:18;1.80;99.90
21778;DHT22;11050;52.222;20.916;2023-11-19T08:30:43;1.80;99.90
21778;DHT22;11050;52.222;20.916;2023-11-19T08:33:09;1.80;99.90
21778;DHT22;11050;52.222;20.916;2023-11-19T08:35:35;1.80;99.90
21778;DHT22;11050;52.222;20.916;2023-11-19T08:38:01;1.90;99.90
21778;DHT22;11050;52.222;20.916;2023-11-19T08:40:27;1.90;99.90
21778;DHT22;11050;52.222;20.916;2023-11-19T08:42:53;2.00;99.90
21778;DHT22;11050;52.222;20.916;2023-11-19T08:45:19;2.00;99.90
21778;DHT22;11050;52.222;20.916;2023-11-19T08:47:44;2.00;99.90
21778;DHT22;11050;52.222;20.916;2023-11-19T08:50:11;2.10;99.90
21778;DHT22;11050;52.222;20.916;2023-11-19T08:52:37;2.00;99.90
21778;DHT22;11050;52.222;20.916;2023-11-19T08:55:04;2.10;99.90
21778;DHT22;11050;52.222;20.916;2023-11-19T08:57:35;2.10;99.90
21778;DHT22;11050;52.222;20.916;2023-11-19T09:00:01;2.10;99.90
21778;DHT22;11050;52.222;20.916;2023-11-19T09:02:28;2.20;99.90
21778;DHT22;11050;52.222;20.916;2023-11-19T09:04:54;2.30;99.90
21778;DHT22;11050;52.222;20.916;2023-11-19T09:07:19;2.30;99.90
21778;DHT22;11050;52.222;20.916;2023-11-19T09:09:46;2.40;99.90
21778;DHT22;11050;52.222;20.916;2023-11-19T09:12:12;2.40;99.90
21778;DHT22;11050;52.222;20.916;2023-11-19T09:14:39;2.50;99.90
21778;DHT22;11050;52.222;20.916;2023-11-19T09:17:04;2.60;99.90
21778;DHT22;11050;52.222;20.916;2023-11-19T09:19:32;2.60;99.90
21778;DHT22;11050;52.222;20.916;2023-11-19T09:21:58;2.60;99.90
21778;DHT22;11050;52.222;20.916;2023-11-19T09:24:24;2.60;99.90
21778;DHT22;11050;52.222;20.916;2023-11-19T09:26:50;2.70;99.90
21778;DHT22;11050;52.222;20.916;2023-11-19T09:29:15;2.70;99.90
21778;DHT22;11050;52.222;20.916;2023-11-19T09:31:41;2.60;99.90
21778;DHT22;11050;52.222;20.916;2023-11-19T09:34:07;2.60;99.90
21778;DHT22;11050;52.222;20.916;2023-11-19T09:36:33;2.50;99.90
21778;DHT22;11050;52.222;20.916;2023-11-19T09:38:59;2.50;99.90
21778;DHT22;11050;52.222;20.916;2023-11-19T09:41:27;2.50;99.90
21778;DHT22;11050;52.222;20.916;2023-11-19T09:43:53;2.50;99.90
21778;DHT22;11050;52.222;20.916;2023-11-19T09:46:19;2.40;99.90
21778;DHT22;11050;52.222;20.916;2023-11-19T09:48:46;2.50;99.90
21778;DHT22;11050;52.222;20.916;2023-11-19T09:51:14;2.40;99.90
21778;DHT22;11050;52.222;20.916;2023-11-19T09:53:40;2.40;99.90
21778;DHT22;11050;52.222;20.916;2023-11-19T09:56:06;2.40;99.90
21778;DHT22;11050;52.222;20.916;2023-11-19T09:58:33;2.40;99.90
21778;DHT22;11050;52.222;20.916;2023-11-19T10:01:00;2.30;99.90
21778;DHT22;11050;52.222;20.916;2023-11-19T10:03:32;2.30;99.90
21778;DHT22;11050;52.222;20.916;2023-11-19T10:06:01;2.30;99.90
21778;DHT22;11050;52.222;20.916;2023-11-19T10:08:27;2.30;99.90
21778;DHT22;11050;52.222;20.916;2023-11-19T10:10:54;2.30;99.90
21778;DHT22;11050;52.222;20.916;2023-11-19T10:13:26;2.30;99.90
21778;DHT22;11050;52.222;20.916;2023-11-19T10:15:53;2.30;99.90
21778;DHT22;11050;52.222;20.916;2023-11-19T10:18:25;2.40;99.90
21778;DHT22;11050;52.222;20.916;2023-11-19T10:20:52;2.40;99.90
21778;DHT22;11050;52.222;20.916;2023-11-19T10:23:19;2.40;99.90
21778;DHT22;11050;52.222;20.916;2023-11-19T10:25:44;2.40;99.90
21778;DHT22;11050;52.222;20.916;2023-11-19T10:28:10;2.40;99.90
21778;DHT22;11050;52.222;20.916;2023-11-19T10:30:36;2.40;99.90
21778;DHT22;11050;52.222;20.916;2023-11-19T10:33:12;2.40;99.90
21778;DHT22;11050;52.222;20.916;2023-11-19T10:35:56;2.40;99.90
21778;DHT22;11050;52.222;20.916;2023-11-19T10:38:23;2.30;99.90
21778;DHT22;11050;52.222;20.916;2023-11-19T10:40:51;2.30;99.90
21778;DHT22;11050;52.222;20.916;2023-11-19T10:43:21;2.30;99.90
21778;DHT22;11050;52.222;20.916;2023-11-19T10:45:51;2.30;99.90
21778;DHT22;11050;52.222;20.916;2023-11-19T10:48:17;2.30;99.90
21778;DHT22;11050;52.222;20.916;2023-11-19T10:50:44;2.30;99.90
21778;DHT22;11050;52.222;20.916;2023-11-19T10:53:14;2.30;99.90
21778;DHT22;11050;52.222;20.916;2023-11-19T10:55:47;2.30;99.90
21778;DHT22;11050;52.222;20.916;2023-11-19T10:58:15;2.30;99.90
21778;DHT22;11050;52.222;20.916;2023-11-19T11:00:47;2.30;99.90
21778;DHT22;11050;52.222;20.916;2023-11-19T11:03:19;2.30;99.90
21778;DHT22;11050;52.222;20.916;2023-11-19T11:05:50;2.30;99.90
21778;DHT22;11050;52.222;20.916;2023-11-19T11:08:18;2.30;99.90
21778;DHT22;11050;52.222;20.916;2023-11-19T11:11:03;2.30;99.90
21778;DHT22;11050;52.222;20.916;2023-11-19T11:13:31;2.20;99.90
21778;DHT22;11050;52.222;20.916;2023-11-19T11:15:59;2.20;99.90
21778;DHT22;11050;52.222;20.916;2023-11-19T11:18:26;2.20;99.90
21778;DHT22;11050;52.222;20.916;2023-11-19T11:21:05;2.20;99.90
21778;DHT22;11050;52.222;20.916;2023-11-19T11:24:01;2.10;99.90
21778;DHT22;11050;52.222;20.916;2023-11-19T11:27:27;2.10;99.90
21778;DHT22;11050;52.222;20.916;2023-11-19T11:33:21;2.10;99.90
21778;DHT22;11050;52.222;20.916;2023-11-19T11:36:20;2.10;99.90
21778;DHT22;11050;52.222;20.916;2023-11-19T11:38:48;2.00;99.90
21778;DHT22;11050;52.222;20.916;2023-11-19T11:41:22;2.10;99.90
21778;DHT22;11050;52.222;20.916;2023-11-19T11:43:50;2.10;99.90
21778;DHT22;11050;52.222;20.916;2023-11-19T11:49:04;2.10;99.90
21778;DHT22;11050;52.222;20.916;2023-11-19T11:57:06;2.20;99.90
21778;DHT22;11050;52.222;20.916;2023-11-19T12:02:16;2.20;99.90
21778;DHT22;11050;52.222;20.916;2023-11-19T12:04:51;2.20;99.90
21778;DHT22;11050;52.222;20.916;2023-11-19T12:07:20;2.20;99.90
21778;DHT22;11050;52.222;20.916;2023-11-19T12:09:53;2.20;99.90
21778;DHT22;11050;52.222;20.916;2023-11-19T12:12:32;2.30;99.90
21778;DHT22;11050;52.222;20.916;2023-11-19T12:20:06;2.20;99.90
21778;DHT22;11050;52.222;20.916;2023-11-19T12:22:40;2.20;99.90
21778;DHT22;11050;52.222;20.916;2023-11-19T12:25:09;2.20;99.90
21778;DHT22;11050;52.222;20.916;2023-11-19T12:27:40;2.20;99.90
21778;DHT22;11050;52.222;20.916;2023-11-19T12:30:10;2.20;99.90
21778;DHT22;11050;52.222;20.916;2023-11-19T12:32:40;2.20;99.90
21778;DHT22;11050;52.222;20.916;2023-11-19T12:35:08;2.20;99.90
21778;DHT22;11050;52.222;20.916;2023-11-19T12:37:47;2.20;99.90
21778;DHT22;11050;52.222;20.916;2023-11-19T12:40:24;2.20;99.90
21778;DHT22;11050;52.222;20.916;2023-11-19T12:42:52;2.20;99.90
21778;DHT22;11050;52.222;20.916;2023-11-19T12:45:21;2.20;99.90
21778;DHT22;11050;52.222;20.916;2023-11-19T12:47:49;2.20;99.90
21778;DHT22;11050;52.222;20.916;2023-11-19T12:50:18;2.20;99.90
21778;DHT22;11050;52.222;20.916;2023-11-19T12:52:58;2.20;99.90
21778;DHT22;11050;52.222;20.916;2023-11-19T12:55:28;2.10;99.90
21778;DHT22;11050;52.222;20.916;2023-11-19T12:57:55;2.10;99.90
21778;DHT22;11050;52.222;20.916;2023-11-19T13:00:23;2.10;99.90
21778;DHT22;11050;52.222;20.916;2023-11-19T13:02:56;2.10;99.90
21778;DHT22;11050;52.222;20.916;2023-11-19T13:08:02;2.10;99.90
21778;DHT22;11050;52.222;20.916;2023-11-19T13:10:33;2.10;99.90
21778;DHT22;11050;52.222;20.916;2023-11-19T13:13:15;2.10;99.90
21778;DHT22;11050;52.222;20.916;2023-11-19T13:15:41;2.10;99.90
21778;DHT22;11050;52.222;20.916;2023-11-19T13:18:06;2.00;99.90
21778;DHT22;11050;52.222;20.916;2023-11-19T13:20:32;2.00;99.90
21778;DHT22;11050;52.222;20.916;2023-11-19T13:23:02;2.00;99.90
21778;DHT22;11050;52.222;20.916;2023-11-19T13:25:29;1.90;99.90
21778;DHT22;11050;52.222;20.916;2023-11-19T13:27:56;1.90;99.90
21778;DHT22;11050;52.222;20.916;2023-11-19T13:30:23;1.90;99.90
21778;DHT22;11050;52.222;20.916;2023-11-19T13:32:50;1.90;99.90
21778;DHT22;11050;52.222;20.916;2023-11-19T13:35:17;1.80;99.90
21778;DHT22;11050;52.222;20.916;2023-11-19T13:37:44;1.80;99.90
21778;DHT22;11050;52.222;20.916;2023-11-19T13:40:11;1.80;99.90
21778;DHT22;11050;52.222;20.916;2023-11-19T13:42:42;1.80;99.90
21778;DHT22;11050;52.222;20.916;2023-11-19T13:45:10;1.80;99.90
21778;DHT22;11050;52.222;20.916;2023-11-19T13:47:41;1.80;99.90
21778;DHT22;11050;52.222;20.916;2023-11-19T13:50:13;1.80;99.90
21778;DHT22;11050;52.222;20.916;2023-11-19T13:52:41;1.80;99.90
21778;DHT22;11050;52.222;20.916;2023-11-19T13:55:10;1.80;99.90
21778;DHT22;11050;52.222;20.916;2023-11-19T13:57:37;1.80;99.90
21778;DHT22;11050;52.222;20.916;2023-11-19T14:00:05;1.70;99.90
21778;DHT22;11050;52.222;20.916;2023-11-19T14:02:36;1.80;99.90
21778;DHT22;11050;52.222;20.916;2023-11-19T14:05:02;1.70;99.90
21778;DHT22;11050;52.222;20.916;2023-11-19T14:07:28;1.70;99.90
21778;DHT22;11050;52.222;20.916;2023-11-19T14:09:54;1.70;99.90
21778;DHT22;11050;52.222;20.916;2023-11-19T14:12:20;1.70;99.90
21778;DHT22;11050;52.222;20.916;2023-11-19T14:14:46;1.70;99.90
21778;DHT22;11050;52.222;20.916;2023-11-19T14:17:11;1.70;99.90
21778;DHT22;11050;52.222;20.916;2023-11-19T14:19:38;1.70;99.90
21778;DHT22;11050;52.222;20.916;2023-11-19T14:22:04;1.70;99.90
21778;DHT22;11050;52.222;20.916;2023-11-19T14:24:31;1.60;99.90
21778;DHT22;11050;52.222;20.916;2023-11-19T14:26:57;1.60;99.90
21778;DHT22;11050;52.222;20.916;2023-11-19T14:29:24;1.70;99.90
21778;DHT22;11050;52.222;20.916;2023-11-19T14:31:55;1.60;99.90
21778;DHT22;11050;52.222;20.916;2023-11-19T14:34:21;1.60;99.90
21778;DHT22;11050;52.222;20.916;2023-11-19T14:36:47;1.60;99.90
21778;DHT22;11050;52.222;20.916;2023-11-19T14:39:13;1.60;99.90
21778;DHT22;11050;52.222;20.916;2023-11-19T14:41:39;1.60;99.90
21778;DHT22;11050;52.222;20.916;2023-11-19T14:44:07;1.60;99.90
21778;DHT22;11050;52.222;20.916;2023-11-19T14:46:36;1.60;99.90
21778;DHT22;11050;52.222;20.916;2023-11-19T14:49:02;1.60;99.90
21778;DHT22;11050;52.222;20.916;2023-11-19T14:51:29;1.60;99.90
21778;DHT22;11050;52.222;20.916;2023-11-19T14:53:55;1.60;99.90
21778;DHT22;11050;52.222;20.916;2023-11-19T14:56:21;1.50;99.90
21778;DHT22;11050;52.222;20.916;2023-11-19T14:58:47;1.50;99.90
21778;DHT22;11050;52.222;20.916;2023-11-19T15:01:13;1.50;99.90
21778;DHT22;11050;52.222;20.916;2023-11-19T15:03:39;1.50;99.90
21778;DHT22;11050;52.222;20.916;2023-11-19T15:06:06;1.50;99.90
21778;DHT22;11050;52.222;20.916;2023-11-19T15:08:33;1.50;99.90
21778;DHT22;11050;52.222;20.916;2023-11-19T15:10:59;1.50;99.90
21778;DHT22;11050;52.222;20.916;2023-11-19T15:13:27;1.50;99.90
21778;DHT22;11050;52.222;20.916;2023-11-19T15:15:53;1.50;99.90
21778;DHT22;11050;52.222;20.916;2023-11-19T15:18:20;1.40;99.90
21778;DHT22;11050;52.222;20.916;2023-11-19T15:20:46;1.40;99.90
21778;DHT22;11050;52.222;20.916;2023-11-19T15:23:13;1.40;99.90
21778;DHT22;11050;52.222;20.916;2023-11-19T15:25:40;1.40;99.90
21778;DHT22;11050;52.222;20.916;2023-11-19T15:28:08;1.40;99.90
21778;DHT22;11050;52.222;20.916;2023-11-19T15:30:33;1.40;99.90
21778;DHT22;11050;52.222;20.916;2023-11-19T15:32:59;1.40;99.90
21778;DHT22;11050;52.222;20.916;2023-11-19T15:35:25;1.40;99.90
21778;DHT22;11050;52.222;20.916;2023-11-19T15:37:51;1.40;99.90
21778;DHT22;11050;52.222;20.916;2023-11-19T15:40:17;1.40;99.90
21778;DHT22;11050;52.222;20.916;2023-11-19T15:42:43;1.40;99.90
21778;DHT22;11050;52.222;20.916;2023-11-19T15:45:10;1.40;99.90
21778;DHT22;11050;52.222;20.916;2023-11-19T15:47:37;1.40;99.90
21778;DHT22;11050;52.222;20.916;2023-11-19T15:50:04;1.40;99.90
21778;DHT22;11050;52.222;20.916;2023-11-19T15:52:31;1.40;99.90
21778;DHT22;11050;52.222;20.916;2023-11-19T15:54:57;1.40;99.90